TimeCST,TemperatureF,Dew PointF,Humidity,Sea Level PressureIn,VisibilityMPH,Wind Direction,Wind SpeedMPH,Gust SpeedMPH,PrecipitationIn,Events,Conditions,WindDirDegrees,DateUTC
12:53 AM,64.0,60.1,87,29.91,10.0,South,4.6,-,N/A,,Clear,180,2012-12-09 06:53:00
1:53 AM,62.1,59.0,90,29.91,10.0,Calm,Calm,-,N/A,,Clear,0,2012-12-09 07:53:00
2:53 AM,61.0,59.0,93,29.91,10.0,SSE,3.5,-,N/A,,Clear,160,2012-12-09 08:53:00
3:53 AM,60.1,57.9,93,29.91,10.0,Calm,Calm,-,N/A,,Clear,0,2012-12-09 09:53:00
4:44 AM,59.0,57.2,94,29.91,10.0,Calm,Calm,-,N/A,,Mostly Cloudy,0,2012-12-09 10:44:00
4:53 AM,57.9,55.9,93,29.91,10.0,Calm,Calm,-,N/A,,Scattered Clouds,0,2012-12-09 10:53:00
5:07 AM,59.0,57.2,94,29.91,9.0,Calm,Calm,-,N/A,,Mostly Cloudy,0,2012-12-09 11:07:00
5:16 AM,59.0,57.2,94,29.92,8.0,Calm,Calm,-,N/A,,Mostly Cloudy,0,2012-12-09 11:16:00
5:53 AM,60.1,57.9,93,29.93,10.0,Calm,Calm,-,N/A,,Overcast,0,2012-12-09 11:53:00
6:53 AM,63.0,60.1,90,29.94,7.0,SSE,4.6,-,N/A,,Overcast,160,2012-12-09 12:53:00
7:08 AM,62.6,60.8,94,29.94,1.5,Calm,Calm,-,N/A,,Overcast,0,2012-12-09 13:08:00
7:18 AM,62.6,60.8,94,29.95,0.5,South,3.5,-,N/A,Fog,Fog,190,2012-12-09 13:18:00
7:27 AM,62.6,60.8,94,29.95,0.2,South,3.5,-,N/A,Fog,Fog,170,2012-12-09 13:27:00
7:53 AM,64.0,62.1,93,29.95,0.2,South,3.5,-,N/A,Fog,Fog,170,2012-12-09 13:53:00
8:53 AM,64.9,64.0,97,29.96,0.2,SE,3.5,-,N/A,Fog,Fog,140,2012-12-09 14:53:00
9:33 AM,66.2,64.4,94,29.96,0.5,SSE,3.5,-,N/A,Fog,Fog,160,2012-12-09 15:33:00
9:53 AM,66.0,64.9,96,29.96,0.5,SSE,5.8,-,N/A,Fog,Fog,160,2012-12-09 15:53:00
10:19 AM,66.2,66.2,100,29.96,1.0,SE,4.6,-,N/A,,Overcast,140,2012-12-09 16:19:00
10:37 AM,66.2,66.2,100,29.95,2.5,Calm,Calm,-,N/A,,Overcast,0,2012-12-09 16:37:00
10:50 AM,68.0,66.2,94,29.95,3.0,SE,3.5,-,N/A,,Overcast,140,2012-12-09 16:50:00
10:53 AM,68.0,66.0,93,29.95,4.0,SSE,3.5,-,N/A,,Overcast,160,2012-12-09 16:53:00
11:41 AM,71.6,66.2,83,29.93,7.0,South,5.8,-,N/A,,Overcast,190,2012-12-09 17:41:00
11:53 AM,72.0,66.9,84,29.91,8.0,South,5.8,-,N/A,,Overcast,180,2012-12-09 17:53:00
12:40 PM,75.2,68.0,78,29.88,9.0,SSW,9.2,-,N/A,,Overcast,210,2012-12-09 18:40:00
12:53 PM,75.9,68.0,76,29.87,10.0,SSW,6.9,-,N/A,,Mostly Cloudy,200,2012-12-09 18:53:00
1:35 PM,78.8,66.2,65,29.85,10.0,SW,9.2,18.4,N/A,,Scattered Clouds,220,2012-12-09 19:35:00
1:53 PM,81.0,64.9,58,29.84,10.0,SSW,13.8,19.6,N/A,,Partly Cloudy,210,2012-12-09 19:53:00
2:53 PM,82.0,64.0,54,29.83,10.0,SW,11.5,-,N/A,,Partly Cloudy,230,2012-12-09 20:53:00
3:53 PM,79.0,62.1,56,29.83,10.0,SSW,8.1,-,N/A,,Partly Cloudy,210,2012-12-09 21:53:00
4:53 PM,77.0,62.1,60,29.83,10.0,SSW,5.8,-,N/A,,Partly Cloudy,210,2012-12-09 22:53:00
5:53 PM,75.9,63.0,64,29.83,10.0,South,8.1,-,N/A,,Scattered Clouds,190,2012-12-09 23:53:00
6:53 PM,75.0,64.0,69,29.83,10.0,South,8.1,-,N/A,,Mostly Cloudy,180,2012-12-10 00:53:00
7:53 PM,73.9,64.9,73,29.83,10.0,South,4.6,-,N/A,,Clear,190,2012-12-10 01:53:00
8:53 PM,73.0,66.0,79,29.84,10.0,South,8.1,-,N/A,,Mostly Cloudy,190,2012-12-10 02:53:00
9:27 PM,73.4,66.2,78,29.85,10.0,SSW,8.1,-,N/A,,Mostly Cloudy,200,2012-12-10 03:27:00
9:45 PM,73.4,66.2,78,29.85,10.0,SSW,9.2,-,N/A,,Overcast,200,2012-12-10 03:45:00
9:53 PM,73.0,66.9,81,29.86,10.0,SSW,9.2,-,N/A,,Overcast,210,2012-12-10 03:53:00
10:53 PM,73.0,66.9,81,29.86,10.0,SSW,6.9,-,N/A,,Mostly Cloudy,210,2012-12-10 04:53:00
11:53 PM,72.0,66.9,84,29.83,10.0,South,6.9,-,N/A,,Mostly Cloudy,180,2012-12-10 05:53:00